sensor_id;sensor_type;location;lat;lon;timestamp;pressure;altitude;pressure_sealevel;temperature;humidity
58769;BME280;44536;47.474;19.056;2023-02-01T00:00:09;100562.72;;;2.08;100.00
58769;BME280;44536;47.474;19.056;2023-02-01T00:03:12;100553.78;;;2.14;100.00
58769;BME280;44536;47.474;19.056;2023-02-01T00:06:16;100563.50;;;2.10;100.00
58769;BME280;44536;47.474;19.056;2023-02-01T00:09:19;100557.44;;;2.10;100.00
58769;BME280;44536;47.474;19.056;2023-02-01T00:12:21;100564.31;;;2.12;100.00
58769;BME280;44536;47.474;19.056;2023-02-01T00:15:24;100561.63;;;2.14;100.00
58769;BME280;44536;47.474;19.056;2023-02-01T00:18:26;100559.75;;;2.17;100.00
58769;BME280;44536;47.474;19.056;2023-02-01T00:21:29;100553.38;;;2.24;100.00
58769;BME280;44536;47.474;19.056;2023-02-01T00:24:32;100555.22;;;2.22;100.00
58769;BME280;44536;47.474;19.056;2023-02-01T00:27:34;100549.28;;;2.17;100.00
58769;BME280;44536;47.474;19.056;2023-02-01T00:30:37;100544.56;;;2.27;100.00
58769;BME280;44536;47.474;19.056;2023-02-01T00:33:40;100556.25;;;2.40;100.00
58769;BME280;44536;47.474;19.056;2023-02-01T00:36:43;100565.09;;;2.38;100.00
58769;BME280;44536;47.474;19.056;2023-02-01T00:39:46;100554.28;;;2.23;100.00
58769;BME280;44536;47.474;19.056;2023-02-01T00:42:48;100573.63;;;2.19;100.00
58769;BME280;44536;47.474;19.056;2023-02-01T00:45:50;100561.06;;;2.29;100.00
58769;BME280;44536;47.474;19.056;2023-02-01T00:48:53;100558.63;;;2.24;100.00
58769;BME280;44536;47.474;19.056;2023-02-01T00:51:56;100541.84;;;2.30;100.00
58769;BME280;44536;47.474;19.056;2023-02-01T00:54:58;100549.16;;;2.44;99.29
58769;BME280;44536;47.474;19.056;2023-02-01T00:58:01;100553.47;;;2.45;98.80
58769;BME280;44536;47.474;19.056;2023-02-01T01:01:18;100548.00;;;2.51;98.89
58769;BME280;44536;47.474;19.056;2023-02-01T01:04:21;100540.25;;;2.48;98.57
58769;BME280;44536;47.474;19.056;2023-02-01T01:07:23;100556.94;;;2.45;98.30
58769;BME280;44536;47.474;19.056;2023-02-01T01:10:26;100548.00;;;2.71;97.44
58769;BME280;44536;47.474;19.056;2023-02-01T01:13:28;100530.00;;;2.63;98.05
58769;BME280;44536;47.474;19.056;2023-02-01T01:16:31;100520.31;;;2.65;96.58
58769;BME280;44536;47.474;19.056;2023-02-01T01:19:34;100520.59;;;2.59;96.98
58769;BME280;44536;47.474;19.056;2023-02-01T01:22:36;100508.41;;;2.58;98.46
58769;BME280;44536;47.474;19.056;2023-02-01T01:25:39;100504.34;;;2.51;96.59
58769;BME280;44536;47.474;19.056;2023-02-01T01:28:42;100501.31;;;2.40;97.25
58769;BME280;44536;47.474;19.056;2023-02-01T01:31:44;100496.06;;;2.18;99.54
58769;BME280;44536;47.474;19.056;2023-02-01T01:34:47;100490.84;;;1.96;99.35
58769;BME280;44536;47.474;19.056;2023-02-01T01:37:49;100475.50;;;1.87;99.85
58769;BME280;44536;47.474;19.056;2023-02-01T01:40:51;100483.63;;;1.80;100.00
58769;BME280;44536;47.474;19.056;2023-02-01T01:44:02;100470.69;;;1.77;100.00
58769;BME280;44536;47.474;19.056;2023-02-01T01:47:05;100472.75;;;2.12;96.76
58769;BME280;44536;47.474;19.056;2023-02-01T01:50:10;100454.50;;;2.32;95.60
58769;BME280;44536;47.474;19.056;2023-02-01T01:53:16;100467.00;;;2.26;96.35
58769;BME280;44536;47.474;19.056;2023-02-01T01:56:21;100492.19;;;2.28;96.25
58769;BME280;44536;47.474;19.056;2023-02-01T01:59:24;100487.38;;;2.18;96.40
58769;BME280;44536;47.474;19.056;2023-02-01T02:02:27;100488.16;;;1.98;97.69
58769;BME280;44536;47.474;19.056;2023-02-01T02:05:30;100481.03;;;1.80;98.73
58769;BME280;44536;47.474;19.056;2023-02-01T02:08:32;100474.31;;;1.96;98.23
58769;BME280;44536;47.474;19.056;2023-02-01T02:11:35;100480.50;;;1.93;97.83
58769;BME280;44536;47.474;19.056;2023-02-01T02:14:37;100471.25;;;1.85;98.33
58769;BME280;44536;47.474;19.056;2023-02-01T02:21:16;100478.19;;;1.86;98.63
58769;BME280;44536;47.474;19.056;2023-02-01T02:28:05;100477.72;;;1.98;97.05
58769;BME280;44536;47.474;19.056;2023-02-01T02:34:38;100479.03;;;2.08;96.31
58769;BME280;44536;47.474;19.056;2023-02-01T02:37:48;100467.59;;;2.11;96.21
58769;BME280;44536;47.474;19.056;2023-02-01T02:44:48;100460.91;;;1.82;97.46
58769;BME280;44536;47.474;19.056;2023-02-01T02:52:02;100450.16;;;1.89;97.17
58769;BME280;44536;47.474;19.056;2023-02-01T02:55:26;100454.66;;;1.86;97.48
58769;BME280;44536;47.474;19.056;2023-02-01T02:58:30;100457.72;;;1.74;97.70
58769;BME280;44536;47.474;19.056;2023-02-01T03:01:52;100453.34;;;1.52;98.65
58769;BME280;44536;47.474;19.056;2023-02-01T03:05:13;100452.06;;;1.39;99.23
58769;BME280;44536;47.474;19.056;2023-02-01T03:08:28;100442.69;;;1.57;98.94
58769;BME280;44536;47.474;19.056;2023-02-01T03:11:32;100441.28;;;1.93;97.52
58769;BME280;44536;47.474;19.056;2023-02-01T03:14:57;100439.56;;;1.92;96.51
58769;BME280;44536;47.474;19.056;2023-02-01T03:18:10;100442.38;;;1.88;96.13
58769;BME280;44536;47.474;19.056;2023-02-01T03:24:46;100449.63;;;2.03;95.92
58769;BME280;44536;47.474;19.056;2023-02-01T03:28:00;100446.87;;;2.06;95.48
58769;BME280;44536;47.474;19.056;2023-02-01T03:31:05;100446.19;;;2.23;94.41
58769;BME280;44536;47.474;19.056;2023-02-01T03:34:07;100442.03;;;2.17;94.39
58769;BME280;44536;47.474;19.056;2023-02-01T03:37:12;100436.31;;;2.29;93.83
58769;BME280;44536;47.474;19.056;2023-02-01T03:40:18;100438.19;;;2.48;92.28
58769;BME280;44536;47.474;19.056;2023-02-01T03:43:23;100433.13;;;3.04;88.98
58769;BME280;44536;47.474;19.056;2023-02-01T03:46:34;100437.53;;;3.04;88.44
58769;BME280;44536;47.474;19.056;2023-02-01T03:49:43;100424.88;;;3.32;86.78
58769;BME280;44536;47.474;19.056;2023-02-01T03:52:51;100428.69;;;3.25;87.03
58769;BME280;44536;47.474;19.056;2023-02-01T03:55:56;100431.75;;;3.35;86.15
58769;BME280;44536;47.474;19.056;2023-02-01T03:58:59;100427.31;;;3.37;86.08
58769;BME280;44536;47.474;19.056;2023-02-01T04:02:02;100430.97;;;3.32;85.96
58769;BME280;44536;47.474;19.056;2023-02-01T04:05:05;100417.53;;;3.59;84.34
58769;BME280;44536;47.474;19.056;2023-02-01T04:08:07;100439.38;;;3.59;84.08
58769;BME280;44536;47.474;19.056;2023-02-01T04:11:10;100423.37;;;3.64;84.20
58769;BME280;44536;47.474;19.056;2023-02-01T04:14:12;100419.53;;;3.54;84.20
58769;BME280;44536;47.474;19.056;2023-02-01T04:17:14;100435.97;;;3.57;84.23
58769;BME280;44536;47.474;19.056;2023-02-01T04:20:17;100417.19;;;3.48;84.58
58769;BME280;44536;47.474;19.056;2023-02-01T04:23:19;100432.53;;;3.37;85.02
58769;BME280;44536;47.474;19.056;2023-02-01T04:26:22;100423.19;;;3.50;83.86
58769;BME280;44536;47.474;19.056;2023-02-01T04:29:25;100417.03;;;3.51;83.89
58769;BME280;44536;47.474;19.056;2023-02-01T04:32:27;100431.78;;;3.53;83.99
58769;BME280;44536;47.474;19.056;2023-02-01T04:35:29;100421.38;;;3.52;84.12
58769;BME280;44536;47.474;19.056;2023-02-01T04:38:32;100419.59;;;3.52;83.47
58769;BME280;44536;47.474;19.056;2023-02-01T04:41:34;100432.50;;;3.57;83.59
58769;BME280;44536;47.474;19.056;2023-02-01T04:44:36;100437.09;;;3.52;84.06
58769;BME280;44536;47.474;19.056;2023-02-01T04:47:41;100440.19;;;3.41;84.73
58769;BME280;44536;47.474;19.056;2023-02-01T04:50:44;100430.34;;;3.46;84.25
58769;BME280;44536;47.474;19.056;2023-02-01T04:53:49;100439.66;;;3.53;83.96
58769;BME280;44536;47.474;19.056;2023-02-01T04:56:51;100429.78;;;3.40;84.80
58769;BME280;44536;47.474;19.056;2023-02-01T04:59:54;100435.75;;;3.43;84.17
58769;BME280;44536;47.474;19.056;2023-02-01T05:02:56;100448.78;;;3.45;84.28
58769;BME280;44536;47.474;19.056;2023-02-01T05:05:59;100441.84;;;3.44;84.68
58769;BME280;44536;47.474;19.056;2023-02-01T05:09:02;100436.53;;;3.45;84.48
58769;BME280;44536;47.474;19.056;2023-02-01T05:12:04;100434.75;;;3.46;84.35
58769;BME280;44536;47.474;19.056;2023-02-01T05:15:25;100445.88;;;3.51;83.86
58769;BME280;44536;47.474;19.056;2023-02-01T05:18:28;100445.03;;;3.50;82.76
58769;BME280;44536;47.474;19.056;2023-02-01T05:21:30;100447.00;;;3.64;81.71
58769;BME280;44536;47.474;19.056;2023-02-01T05:24:33;100451.41;;;3.63;81.54
58769;BME280;44536;47.474;19.056;2023-02-01T05:27:36;100437.22;;;3.49;81.96
58769;BME280;44536;47.474;19.056;2023-02-01T05:30:39;100447.94;;;3.63;81.34
58769;BME280;44536;47.474;19.056;2023-02-01T05:33:43;100452.16;;;3.65;81.57
58769;BME280;44536;47.474;19.056;2023-02-01T05:36:46;100451.75;;;3.56;81.82
58769;BME280;44536;47.474;19.056;2023-02-01T05:39:49;100449.12;;;3.56;82.29
58769;BME280;44536;47.474;19.056;2023-02-01T05:42:51;100435.50;;;3.66;82.34
58769;BME280;44536;47.474;19.056;2023-02-01T05:45:54;100451.25;;;3.66;82.47
58769;BME280;44536;47.474;19.056;2023-02-01T05:48:56;100429.47;;;3.64;82.62
58769;BME280;44536;47.474;19.056;2023-02-01T05:51:59;100444.75;;;3.56;82.84
58769;BME280;44536;47.474;19.056;2023-02-01T05:55:02;100454.88;;;3.45;83.82
58769;BME280;44536;47.474;19.056;2023-02-01T05:58:05;100450.31;;;3.67;82.69
58769;BME280;44536;47.474;19.056;2023-02-01T06:01:08;100449.63;;;3.64;82.54
58769;BME280;44536;47.474;19.056;2023-02-01T06:04:10;100445.78;;;3.71;82.63
58769;BME280;44536;47.474;19.056;2023-02-01T06:07:12;100451.25;;;3.85;81.54
58769;BME280;44536;47.474;19.056;2023-02-01T06:10:17;100458.13;;;3.88;81.49
58769;BME280;44536;47.474;19.056;2023-02-01T06:13:20;100457.19;;;3.89;81.47
58769;BME280;44536;47.474;19.056;2023-02-01T06:16:23;100479.31;;;3.83;81.66
58769;BME280;44536;47.474;19.056;2023-02-01T06:19:25;100462.88;;;3.80;81.74
58769;BME280;44536;47.474;19.056;2023-02-01T06:22:28;100488.03;;;3.84;81.65
58769;BME280;44536;47.474;19.056;2023-02-01T06:25:30;100484.28;;;3.71;82.70
58769;BME280;44536;47.474;19.056;2023-02-01T06:28:33;100490.72;;;3.82;81.97
58769;BME280;44536;47.474;19.056;2023-02-01T06:31:36;100482.56;;;3.70;82.46
58769;BME280;44536;47.474;19.056;2023-02-01T06:34:38;100490.31;;;3.73;82.05
58769;BME280;44536;47.474;19.056;2023-02-01T06:37:42;100494.28;;;3.81;81.61
58769;BME280;44536;47.474;19.056;2023-02-01T06:40:52;100504.91;;;3.78;81.56
58769;BME280;44536;47.474;19.056;2023-02-01T06:43:54;100507.97;;;3.88;81.20
58769;BME280;44536;47.474;19.056;2023-02-01T06:46:57;100490.38;;;4.09;79.89
58769;BME280;44536;47.474;19.056;2023-02-01T06:49:59;100505.41;;;4.05;80.28
58769;BME280;44536;47.474;19.056;2023-02-01T06:53:02;100502.66;;;4.08;79.61
58769;BME280;44536;47.474;19.056;2023-02-01T06:56:04;100493.38;;;4.18;78.95
58769;BME280;44536;47.474;19.056;2023-02-01T06:59:08;100495.78;;;4.23;79.06
58769;BME280;44536;47.474;19.056;2023-02-01T07:02:13;100490.63;;;4.21;78.64
58769;BME280;44536;47.474;19.056;2023-02-01T07:05:16;100486.72;;;4.30;78.48
58769;BME280;44536;47.474;19.056;2023-02-01T07:08:18;100489.91;;;4.18;79.25
58769;BME280;44536;47.474;19.056;2023-02-01T07:11:21;100501.03;;;4.42;77.76
58769;BME280;44536;47.474;19.056;2023-02-01T07:14:23;100497.63;;;4.40;77.62
58769;BME280;44536;47.474;19.056;2023-02-01T07:17:26;100490.03;;;4.33;78.27
58769;BME280;44536;47.474;19.056;2023-02-01T07:20:30;100496.69;;;4.41;77.75
58769;BME280;44536;47.474;19.056;2023-02-01T07:23:33;100499.25;;;4.42;77.88
58769;BME280;44536;47.474;19.056;2023-02-01T07:26:37;100504.59;;;4.58;77.00
58769;BME280;44536;47.474;19.056;2023-02-01T07:29:43;100512.91;;;4.68;76.19
58769;BME280;44536;47.474;19.056;2023-02-01T07:32:45;100525.41;;;4.80;75.39
58769;BME280;44536;47.474;19.056;2023-02-01T07:35:49;100527.66;;;4.87;74.78
58769;BME280;44536;47.474;19.056;2023-02-01T07:38:51;100533.06;;;5.02;74.11
58769;BME280;44536;47.474;19.056;2023-02-01T07:41:58;100522.09;;;5.11;73.15
58769;BME280;44536;47.474;19.056;2023-02-01T07:45:09;100519.16;;;5.17;72.12
58769;BME280;44536;47.474;19.056;2023-02-01T07:48:24;100539.59;;;5.27;71.71
58769;BME280;44536;47.474;19.056;2023-02-01T07:51:28;100528.69;;;5.35;72.43
58769;BME280;44536;47.474;19.056;2023-02-01T07:54:30;100524.66;;;5.45;71.02
58769;BME280;44536;47.474;19.056;2023-02-01T07:57:33;100527.06;;;5.50;71.40
58769;BME280;44536;47.474;19.056;2023-02-01T08:00:36;100525.66;;;5.76;69.40
58769;BME280;44536;47.474;19.056;2023-02-01T08:03:59;100531.53;;;5.81;69.13
58769;BME280;44536;47.474;19.056;2023-02-01T08:07:02;100531.59;;;5.96;68.72
58769;BME280;44536;47.474;19.056;2023-02-01T08:10:05;100537.03;;;6.09;68.00
58769;BME280;44536;47.474;19.056;2023-02-01T08:13:12;100532.47;;;6.13;67.36
58769;BME280;44536;47.474;19.056;2023-02-01T08:16:17;100537.63;;;6.14;67.57
58769;BME280;44536;47.474;19.056;2023-02-01T08:19:19;100548.94;;;6.16;66.29
58769;BME280;44536;47.474;19.056;2023-02-01T08:22:22;100530.97;;;5.91;67.62
58769;BME280;44536;47.474;19.056;2023-02-01T08:25:24;100527.88;;;5.83;67.39
58769;BME280;44536;47.474;19.056;2023-02-01T08:28:27;100551.88;;;5.77;67.89
58769;BME280;44536;47.474;19.056;2023-02-01T08:31:30;100565.87;;;5.78;67.73
58769;BME280;44536;47.474;19.056;2023-02-01T08:34:33;100566.91;;;5.75;68.19
58769;BME280;44536;47.474;19.056;2023-02-01T08:37:37;100575.31;;;5.82;68.59
58769;BME280;44536;47.474;19.056;2023-02-01T08:40:40;100583.03;;;5.69;70.34
58769;BME280;44536;47.474;19.056;2023-02-01T08:43:44;100590.72;;;5.39;71.74
58769;BME280;44536;47.474;19.056;2023-02-01T08:46:46;100578.72;;;5.33;72.33
58769;BME280;44536;47.474;19.056;2023-02-01T08:49:48;100575.63;;;5.25;72.92
58769;BME280;44536;47.474;19.056;2023-02-01T08:52:52;100577.97;;;5.14;73.75
58769;BME280;44536;47.474;19.056;2023-02-01T08:55:54;100571.72;;;4.99;74.36
58769;BME280;44536;47.474;19.056;2023-02-01T08:58:57;100582.28;;;4.98;75.17
58769;BME280;44536;47.474;19.056;2023-02-01T09:01:59;100577.22;;;5.12;73.81
58769;BME280;44536;47.474;19.056;2023-02-01T09:05:03;100575.31;;;5.31;73.05
58769;BME280;44536;47.474;19.056;2023-02-01T09:08:06;100581.56;;;5.63;72.07
58769;BME280;44536;47.474;19.056;2023-02-01T09:11:18;100581.00;;;5.74;71.64
58769;BME280;44536;47.474;19.056;2023-02-01T09:14:23;100581.00;;;5.74;70.99
58769;BME280;44536;47.474;19.056;2023-02-01T09:17:27;100571.59;;;5.70;71.93
58769;BME280;44536;47.474;19.056;2023-02-01T09:20:30;100566.59;;;5.81;71.97
58769;BME280;44536;47.474;19.056;2023-02-01T09:23:33;100558.34;;;6.05;70.73
58769;BME280;44536;47.474;19.056;2023-02-01T09:26:36;100558.25;;;6.38;70.96
58769;BME280;44536;47.474;19.056;2023-02-01T09:29:39;100567.69;;;6.73;68.83
58769;BME280;44536;47.474;19.056;2023-02-01T09:32:41;100558.25;;;6.99;67.50
58769;BME280;44536;47.474;19.056;2023-02-01T09:35:44;100563.38;;;6.86;67.32
58769;BME280;44536;47.474;19.056;2023-02-01T09:38:46;100556.31;;;7.03;67.20
58769;BME280;44536;47.474;19.056;2023-02-01T09:48:38;100583.13;;;6.79;67.44
58769;BME280;44536;47.474;19.056;2023-02-01T09:51:45;100578.69;;;6.80;66.61
58769;BME280;44536;47.474;19.056;2023-02-01T09:54:59;100589.03;;;6.98;65.92
58769;BME280;44536;47.474;19.056;2023-02-01T09:58:27;100571.66;;;6.80;66.32
58769;BME280;44536;47.474;19.056;2023-02-01T10:01:31;100551.91;;;6.87;67.20
58769;BME280;44536;47.474;19.056;2023-02-01T10:04:34;100555.03;;;8.38;63.23
58769;BME280;44536;47.474;19.056;2023-02-01T10:07:48;100547.41;;;9.39;59.04
58769;BME280;44536;47.474;19.056;2023-02-01T10:10:58;100549.41;;;10.48;55.50
58769;BME280;44536;47.474;19.056;2023-02-01T10:14:13;100543.16;;;10.49;55.51
58769;BME280;44536;47.474;19.056;2023-02-01T10:27:32;100489.03;;;8.23;61.99
58769;BME280;44536;47.474;19.056;2023-02-01T10:30:43;100492.41;;;7.70;64.19
58769;BME280;44536;47.474;19.056;2023-02-01T10:33:49;100499.53;;;7.11;66.77
58769;BME280;44536;47.474;19.056;2023-02-01T10:36:55;100504.63;;;6.84;67.86
58769;BME280;44536;47.474;19.056;2023-02-01T10:40:21;100495.19;;;8.51;63.79
58769;BME280;44536;47.474;19.056;2023-02-01T10:43:26;100496.56;;;11.39;55.00
58769;BME280;44536;47.474;19.056;2023-02-01T10:46:29;100488.69;;;13.23;48.96
58769;BME280;44536;47.474;19.056;2023-02-01T10:50:13;100496.34;;;13.37;46.87
58769;BME280;44536;47.474;19.056;2023-02-01T10:53:23;100501.66;;;12.09;50.92
58769;BME280;44536;47.474;19.056;2023-02-01T10:56:28;100496.81;;;12.14;50.36
58769;BME280;44536;47.474;19.056;2023-02-01T10:59:30;100485.69;;;11.31;52.46
58769;BME280;44536;47.474;19.056;2023-02-01T11:02:35;100478.94;;;9.96;56.39
58769;BME280;44536;47.474;19.056;2023-02-01T11:05:45;100472.66;;;8.98;59.69
58769;BME280;44536;47.474;19.056;2023-02-01T11:08:51;100475.13;;;8.34;62.20
58769;BME280;44536;47.474;19.056;2023-02-01T11:11:56;100467.59;;;8.28;63.24
58769;BME280;44536;47.474;19.056;2023-02-01T11:15:18;100458.22;;;8.37;64.04
58769;BME280;44536;47.474;19.056;2023-02-01T11:18:27;100453.72;;;9.04;61.81
58769;BME280;44536;47.474;19.056;2023-02-01T11:21:32;100446.56;;;9.18;61.13
58769;BME280;44536;47.474;19.056;2023-02-01T11:24:35;100451.00;;;8.53;63.36
58769;BME280;44536;47.474;19.056;2023-02-01T11:27:40;100443.97;;;8.39;66.52
58769;BME280;44536;47.474;19.056;2023-02-01T11:30:59;100447.69;;;7.81;69.11
58769;BME280;44536;47.474;19.056;2023-02-01T11:34:14;100449.63;;;7.08;73.31
58769;BME280;44536;47.474;19.056;2023-02-01T11:37:27;100442.50;;;6.66;77.64
58769;BME280;44536;47.474;19.056;2023-02-01T11:40:35;100430.94;;;6.83;77.97
58769;BME280;44536;47.474;19.056;2023-02-01T11:43:56;100440.25;;;6.44;79.99
58769;BME280;44536;47.474;19.056;2023-02-01T11:47:25;100438.28;;;6.02;80.46
58769;BME280;44536;47.474;19.056;2023-02-01T11:57:53;100420.13;;;5.33;89.37
58769;BME280;44536;47.474;19.056;2023-02-01T12:01:18;100407.00;;;5.00;91.04
58769;BME280;44536;47.474;19.056;2023-02-01T12:04:53;100397.34;;;5.01;92.42
58769;BME280;44536;47.474;19.056;2023-02-01T12:08:10;100399.03;;;5.02;92.43
58769;BME280;44536;47.474;19.056;2023-02-01T12:12:08;100392.47;;;4.93;93.83
58769;BME280;44536;47.474;19.056;2023-02-01T12:35:05;100419.69;;;4.06;100.00
58769;BME280;44536;47.474;19.056;2023-02-01T12:41:47;100433.41;;;3.56;100.00
58769;BME280;44536;47.474;19.056;2023-02-01T12:45:14;100431.06;;;3.50;100.00
58769;BME280;44536;47.474;19.056;2023-02-01T12:51:41;100446.69;;;3.32;100.00
58769;BME280;44536;47.474;19.056;2023-02-01T12:58:28;100414.88;;;3.21;100.00
58769;BME280;44536;47.474;19.056;2023-02-01T13:01:37;100410.44;;;3.42;100.00
58769;BME280;44536;47.474;19.056;2023-02-01T13:05:05;100406.06;;;3.61;100.00
58769;BME280;44536;47.474;19.056;2023-02-01T13:08:21;100380.44;;;3.85;100.00
58769;BME280;44536;47.474;19.056;2023-02-01T13:11:33;100371.69;;;4.38;100.00
58769;BME280;44536;47.474;19.056;2023-02-01T13:14:55;100359.34;;;4.73;100.00
58769;BME280;44536;47.474;19.056;2023-02-01T13:18:02;100346.28;;;4.39;100.00
58769;BME280;44536;47.474;19.056;2023-02-01T13:21:12;100349.75;;;4.05;100.00
58769;BME280;44536;47.474;19.056;2023-02-01T13:24:33;100346.06;;;4.09;100.00
58769;BME280;44536;47.474;19.056;2023-02-01T13:27:38;100335.31;;;3.96;100.00
58769;BME280;44536;47.474;19.056;2023-02-01T13:37:50;100325.16;;;3.54;100.00
58769;BME280;44536;47.474;19.056;2023-02-01T13:41:21;100328.94;;;3.65;100.00
58769;BME280;44536;47.474;19.056;2023-02-01T13:44:40;100359.47;;;3.66;100.00
58769;BME280;44536;47.474;19.056;2023-02-01T13:47:46;100358.16;;;3.58;100.00
58769;BME280;44536;47.474;19.056;2023-02-01T13:50:56;100373.56;;;3.64;100.00
58769;BME280;44536;47.474;19.056;2023-02-01T13:54:00;100378.50;;;3.53;100.00
58769;BME280;44536;47.474;19.056;2023-02-01T13:57:04;100382.03;;;3.52;100.00
58769;BME280;44536;47.474;19.056;2023-02-01T14:00:30;100381.25;;;3.50;100.00
58769;BME280;44536;47.474;19.056;2023-02-01T14:03:45;100378.91;;;3.44;100.00
58769;BME280;44536;47.474;19.056;2023-02-01T14:06:51;100371.97;;;3.43;100.00
58769;BME280;44536;47.474;19.056;2023-02-01T14:09:55;100348.47;;;3.41;100.00
58769;BME280;44536;47.474;19.056;2023-02-01T14:13:05;100338.63;;;3.99;100.00
58769;BME280;44536;47.474;19.056;2023-02-01T14:16:17;100329.28;;;3.94;100.00
58769;BME280;44536;47.474;19.056;2023-02-01T14:19:30;100336.06;;;3.81;100.00
58769;BME280;44536;47.474;19.056;2023-02-01T14:22:34;100335.94;;;4.01;100.00
58769;BME280;44536;47.474;19.056;2023-02-01T14:25:37;100335.53;;;4.26;100.00
58769;BME280;44536;47.474;19.056;2023-02-01T14:28:44;100336.56;;;4.06;100.00
58769;BME280;44536;47.474;19.056;2023-02-01T14:35:26;100372.03;;;3.96;100.00
58769;BME280;44536;47.474;19.056;2023-02-01T14:38:31;100374.53;;;3.99;100.00
58769;BME280;44536;47.474;19.056;2023-02-01T14:41:35;100376.91;;;4.04;100.00
58769;BME280;44536;47.474;19.056;2023-02-01T14:44:37;100372.59;;;4.20;100.00
58769;BME280;44536;47.474;19.056;2023-02-01T14:47:40;100371.00;;;4.35;100.00
58769;BME280;44536;47.474;19.056;2023-02-01T14:50:46;100368.66;;;4.28;100.00
58769;BME280;44536;47.474;19.056;2023-02-01T14:53:50;100382.25;;;4.19;100.00
58769;BME280;44536;47.474;19.056;2023-02-01T14:56:53;100381.72;;;4.13;100.00
58769;BME280;44536;47.474;19.056;2023-02-01T15:00:05;100381.88;;;4.10;100.00
58769;BME280;44536;47.474;19.056;2023-02-01T15:03:41;100388.03;;;4.09;100.00
58769;BME280;44536;47.474;19.056;2023-02-01T15:06:56;100393.81;;;3.98;100.00
58769;BME280;44536;47.474;19.056;2023-02-01T15:10:05;100373.81;;;3.95;100.00
58769;BME280;44536;47.474;19.056;2023-02-01T15:13:18;100369.28;;;3.99;100.00
58769;BME280;44536;47.474;19.056;2023-02-01T15:16:22;100362.28;;;3.81;100.00
58769;BME280;44536;47.474;19.056;2023-02-01T15:19:28;100365.91;;;3.78;100.00
58769;BME280;44536;47.474;19.056;2023-02-01T15:22:31;100353.72;;;3.77;100.00
58769;BME280;44536;47.474;19.056;2023-02-01T15:25:36;100364.25;;;3.58;100.00
58769;BME280;44536;47.474;19.056;2023-02-01T15:28:40;100357.53;;;3.53;100.00
58769;BME280;44536;47.474;19.056;2023-02-01T15:31:50;100358.03;;;3.42;100.00
58769;BME280;44536;47.474;19.056;2023-02-01T15:34:53;100350.88;;;3.46;100.00
58769;BME280;44536;47.474;19.056;2023-02-01T15:41:29;100357.53;;;3.34;100.00
58769;BME280;44536;47.474;19.056;2023-02-01T15:44:39;100365.38;;;3.34;100.00
58769;BME280;44536;47.474;19.056;2023-02-01T15:47:47;100350.44;;;3.55;100.00
58769;BME280;44536;47.474;19.056;2023-02-01T15:50:52;100366.53;;;3.47;100.00
58769;BME280;44536;47.474;19.056;2023-02-01T15:54:05;100369.00;;;3.50;100.00
58769;BME280;44536;47.474;19.056;2023-02-01T15:57:20;100369.22;;;3.46;100.00
58769;BME280;44536;47.474;19.056;2023-02-01T16:00:25;100357.94;;;3.44;100.00
58769;BME280;44536;47.474;19.056;2023-02-01T16:03:37;100361.50;;;3.43;100.00
58769;BME280;44536;47.474;19.056;2023-02-01T16:06:46;100369.03;;;3.67;98.30
58769;BME280;44536;47.474;19.056;2023-02-01T16:09:55;100365.91;;;3.78;97.18
58769;BME280;44536;47.474;19.056;2023-02-01T16:12:57;100393.84;;;3.79;98.06
58769;BME280;44536;47.474;19.056;2023-02-01T16:16:02;100397.34;;;3.97;97.01
58769;BME280;44536;47.474;19.056;2023-02-01T16:19:09;100411.31;;;3.97;97.41
58769;BME280;44536;47.474;19.056;2023-02-01T16:22:13;100410.91;;;3.88;99.02
58769;BME280;44536;47.474;19.056;2023-02-01T16:25:15;100421.31;;;3.89;98.58
58769;BME280;44536;47.474;19.056;2023-02-01T16:28:18;100397.94;;;3.85;100.00
58769;BME280;44536;47.474;19.056;2023-02-01T16:31:25;100397.16;;;3.83;100.00
58769;BME280;44536;47.474;19.056;2023-02-01T16:34:30;100406.37;;;3.91;98.53
58769;BME280;44536;47.474;19.056;2023-02-01T16:37:33;100384.69;;;3.88;99.33
58769;BME280;44536;47.474;19.056;2023-02-01T16:40:42;100384.47;;;3.92;100.00
58769;BME280;44536;47.474;19.056;2023-02-01T16:43:45;100395.94;;;3.90;98.93
58769;BME280;44536;47.474;19.056;2023-02-01T16:46:51;100381.75;;;3.94;99.68
58769;BME280;44536;47.474;19.056;2023-02-01T16:49:54;100368.56;;;3.95;98.60
58769;BME280;44536;47.474;19.056;2023-02-01T16:52:56;100368.78;;;3.91;99.86
58769;BME280;44536;47.474;19.056;2023-02-01T16:55:59;100372.19;;;3.93;100.00
58769;BME280;44536;47.474;19.056;2023-02-01T16:59:02;100367.38;;;3.84;100.00
58769;BME280;44536;47.474;19.056;2023-02-01T17:02:05;100359.75;;;3.79;100.00
58769;BME280;44536;47.474;19.056;2023-02-01T17:05:09;100360.81;;;3.75;100.00
58769;BME280;44536;47.474;19.056;2023-02-01T17:08:14;100343.72;;;3.66;100.00
58769;BME280;44536;47.474;19.056;2023-02-01T17:11:18;100370.03;;;3.65;99.89
58769;BME280;44536;47.474;19.056;2023-02-01T17:14:21;100350.16;;;3.61;99.82
58769;BME280;44536;47.474;19.056;2023-02-01T17:17:32;100356.03;;;3.47;100.00
58769;BME280;44536;47.474;19.056;2023-02-01T17:20:41;100345.91;;;3.40;100.00
58769;BME280;44536;47.474;19.056;2023-02-01T17:23:45;100352.50;;;3.48;99.40
58769;BME280;44536;47.474;19.056;2023-02-01T17:26:48;100357.44;;;3.54;99.13
58769;BME280;44536;47.474;19.056;2023-02-01T17:29:53;100352.78;;;3.61;97.75
58769;BME280;44536;47.474;19.056;2023-02-01T17:32:59;100368.87;;;3.53;98.61
58769;BME280;44536;47.474;19.056;2023-02-01T17:36:14;100358.38;;;3.53;97.56
58769;BME280;44536;47.474;19.056;2023-02-01T17:39:17;100352.69;;;3.62;96.21
58769;BME280;44536;47.474;19.056;2023-02-01T17:42:38;100352.84;;;3.59;96.96